Flight Track Log - Related Links

Times and Time Zones

All times are in EDT time to prevent confusion due to time zone crossing. See the UAL4543 flight status page for this flight to view local times or setup timezone preferences in your user account.

Time Position Orientation Groundspeed Altitude Reporting Facility
EDT Latitude Longitude Course Direction KTS MPH feet Rate Location/Type
Mon 07:54:26 PM 40.6667 -74.1833 287° West 160 184 1,000  Level New York TRACON
Mon 07:55:26 PM 40.6333 -74.2167 217° Southwest 208 239 3,400 2,500 Climbing New York TRACON
Mon 07:56:26 PM 40.6500 -74.2833 288° West 220 253 6,000 2,350 Climbing New York TRACON
Mon 07:57:00 PM 40.7696 -74.5163 284° West  Level FlightAware Approximate
Mon 07:57:26 PM 40.6833 -74.3667 298° West 249 287 8,100  Level New York TRACON
Mon 07:58:00 PM 40.7918 -74.6383 284° West  Level FlightAware Approximate
Mon 07:58:26 PM 40.7000 -74.4667 282° West 281 323 10,200  Level New York TRACON
Mon 07:59:00 PM 40.8175 -74.7590 287° West  Level FlightAware Approximate
Mon 08:00:10 PM 40.7822 -74.6189 306° West 332 382 12,500  Level New York Center
Mon 08:01:12 PM 40.8536 -74.7325 310° West 361 415 13,800 1,388 Climbing New York Center
Mon 08:02:11 PM 40.8850 -74.8442 290° West 353 406 15,300 1,550 Climbing New York Center
Mon 08:03:12 PM 40.8722 -74.9778 263° West 353 406 16,900 1,377 Climbing New York Center
Mon 08:04:13 PM 40.8506 -75.1108 258° West 375 432 18,100 1,068 Climbing New York Center
Mon 08:05:10 PM 40.8289 -75.2467 258° West 375 432 19,000 1,119 Climbing New York Center
Mon 08:06:11 PM 40.8069 -75.3822 258° West 375 432 20,300 1,240 Climbing New York Center
Mon 08:07:11 PM 40.7828 -75.5206 257° West 386 444 21,500 1,240 Climbing New York Center
Mon 08:08:12 PM 40.7606 -75.6586 258° West 391 450 22,800 1,289 Climbing New York Center
Mon 08:09:12 PM 40.7381 -75.7939 258° West 391 450 24,100 1,200 Climbing New York Center
Mon 08:10:12 PM 40.7156 -75.9292 258° West 391 450 25,200 1,169 Climbing New York Center
Mon 08:11:10 PM 40.7014 -76.0650 262° West 391 450 26,400 966 Climbing New York Center
Mon 08:12:10 PM 40.7200 -76.2008 280° West 377 434 27,100 1,041 Climbing New York Center
Mon 08:13:11 PM 40.7342 -76.3469 277° West 382 440 28,500 1,426 Climbing New York Center
Mon 08:14:12 PM 40.7489 -76.4769 279° West 371 427 30,000 1,438 Climbing New York Center
Mon 08:15:12 PM 40.7656 -76.6017 280° West 359 413 31,400 1,438 Climbing New York Center
Mon 08:16:13 PM 40.7786 -76.7206 278° West 348 400 32,900 1,525 Climbing New York Center
Mon 08:17:10 PM 40.7933 -76.8397 279° West 336 387 34,400 1,385 Climbing New York Center
Mon 08:18:10 PM 40.8042 -76.9506 277° West 323 372 35,600 793 Climbing New York Center
Mon 08:19:11 PM 40.8172 -77.0586 279° West 312 359 36,000 149 Climbing New York Center
Mon 08:20:51 PM 40.8422 -77.2592 279° West 321 369 36,000  Level Cleveland Center
Mon 08:21:51 PM 40.8542 -77.3875 277° West 340 391 36,000  Level Cleveland Center
Mon 08:22:51 PM 40.8703 -77.5186 279° West 354 407 36,000  Level Cleveland Center
Mon 08:23:51 PM 40.8844 -77.6553 278° West 373 429 36,000  Level Cleveland Center
Mon 08:24:51 PM 40.8981 -77.7892 278° West 373 429 36,000  Level Cleveland Center
Mon 08:25:51 PM 40.9117 -77.9233 278° West 373 429 36,000  Level Cleveland Center
Mon 08:26:51 PM 40.9275 -78.0603 279° West 373 429 36,000  Level Cleveland Center
Mon 08:27:51 PM 40.9408 -78.1972 277° West 373 429 36,000  Level Cleveland Center
Mon 08:28:51 PM 40.9561 -78.3342 278° West 373 429 36,000  Level Cleveland Center
Mon 08:29:51 PM 40.9711 -78.4739 278° West 378 435 36,000  Level Cleveland Center
Mon 08:30:51 PM 40.9842 -78.6108 277° West 378 435 36,000  Level Cleveland Center
Mon 08:31:51 PM 40.9989 -78.7481 278° West 383 441 36,000  Level Cleveland Center
Mon 08:32:51 PM 41.0114 -78.8881 277° West 388 447 36,000  Level Cleveland Center
Mon 08:33:51 PM 41.0258 -79.0253 278° West 388 447 36,000  Level Cleveland Center
Mon 08:34:51 PM 41.0361 -79.1628 276° West 388 447 36,000  Level Cleveland Center
Mon 08:35:51 PM 41.0503 -79.2972 278° West 388 447 36,000  Level Cleveland Center
Mon 08:36:51 PM 41.0619 -79.4347 276° West 388 447 36,000  Level Cleveland Center
Mon 08:37:51 PM 41.0758 -79.5694 278° West 388 447 36,000  Level Cleveland Center
Mon 08:38:51 PM 41.0875 -79.7069 276° West 388 447 36,000  Level Cleveland Center
Mon 08:39:51 PM 41.0989 -79.8447 276° West 383 441 36,000  Level Cleveland Center
Mon 08:40:51 PM 41.1119 -79.9794 277° West 383 441 36,000  Level Cleveland Center
Mon 08:41:51 PM 41.1231 -80.1172 276° West 383 441 36,000  Level Cleveland Center
Mon 08:42:51 PM 41.1361 -80.2550 277° West 383 441 36,000  Level Cleveland Center
Mon 08:43:51 PM 41.1428 -80.3956 274° West 389 448 36,000  Level Cleveland Center
Mon 08:44:51 PM 41.1553 -80.5336 277° West 384 442 36,000  Level Cleveland Center
Mon 08:45:51 PM 41.1658 -80.6714 276° West 384 442 36,000  Level Cleveland Center
Mon 08:46:51 PM 41.1781 -80.8119 277° West 384 442 36,000  Level Cleveland Center
Mon 08:47:51 PM 41.1881 -80.9500 276° West 384 442 36,000  Level Cleveland Center
Mon 08:48:51 PM 41.1981 -81.0908 275° West 384 442 36,000  Level Cleveland Center
Mon 08:49:51 PM 41.2097 -81.2289 276° West 384 442 36,000  Level Cleveland Center
Mon 08:50:51 PM 41.2172 -81.3533 275° West 384 442 36,000  Level Cleveland Center
Mon 08:51:51 PM 41.2308 -81.4914 278° West 384 442 36,000  Level Cleveland Center
Mon 08:52:51 PM 41.2400 -81.6325 275° West 384 442 36,000  Level Cleveland Center
Mon 08:53:51 PM 41.2514 -81.7708 276° West 384 442 36,000  Level Cleveland Center
Mon 08:54:51 PM 41.2603 -81.9089 275° West 384 442 36,000  Level Cleveland Center
Mon 08:55:51 PM 41.2711 -82.0444 276° West 384 442 36,000  Level Cleveland Center
Mon 08:56:51 PM 41.2792 -82.2050 274° West 394 453 36,000  Level Cleveland Center
Mon 08:57:51 PM 41.2878 -82.3406 275° West 382 440 36,000  Level Cleveland Center
Mon 08:58:51 PM 41.2958 -82.4817 274° West 382 440 36,000  Level Cleveland Center
Mon 08:59:51 PM 41.3042 -82.6064 275° West 387 445 36,000  Level Cleveland Center
Mon 09:00:51 PM 41.3119 -82.7450 274° West 387 445 36,000  Level Cleveland Center
Mon 09:01:51 PM 41.3219 -82.8836 276° West 387 445 36,000  Level Cleveland Center
Mon 09:02:51 PM 41.3294 -83.0194 274° West 382 440 36,000  Level Cleveland Center
Mon 09:03:51 PM 41.3369 -83.1550 274° West 382 440 36,000  Level Cleveland Center
Mon 09:04:51 PM 41.3442 -83.2936 274° West 382 440 36,000  Level Cleveland Center
Mon 09:05:51 PM 41.3514 -83.4267 274° West 377 434 36,000  Level Cleveland Center
Mon 09:06:51 PM 41.3583 -83.5628 274° West 372 428 36,000  Level Cleveland Center
Mon 09:07:51 PM 41.3672 -83.7014 275° West 372 428 36,000  Level Cleveland Center
Mon 09:08:51 PM 41.3739 -83.8347 274° West 367 422 36,000  Level Cleveland Center
Mon 09:09:51 PM 41.3803 -83.9706 274° West 367 422 36,000  Level Cleveland Center
Mon 09:10:51 PM 41.3864 -84.1092 273° West 367 422 36,000  Level Cleveland Center
Mon 09:12:58 PM 41.4039 -84.3928 275° West 369 425 36,000  Level Chicago Center
Mon 09:14:00 PM 41.4103 -84.5308 274° West 373 429 36,000  Level Chicago Center
Mon 09:15:02 PM 41.4175 -84.6942 273° West 371 427 36,000  Level Chicago Center
Mon 09:16:04 PM 41.4242 -84.8319 274° West 373 429 36,000  Level Chicago Center
Mon 09:17:06 PM 41.4308 -84.9678 274° West 370 426 36,000  Level Chicago Center
Mon 09:18:08 PM 41.4350 -85.1047 272° West 368 423 36,000  Level Chicago Center
Mon 09:19:10 PM 41.4406 -85.2428 273° West 370 426 36,000  Level Chicago Center
Mon 09:20:12 PM 41.4456 -85.3817 273° West 371 427 36,000  Level Chicago Center
Mon 09:21:14 PM 41.4450 -85.5203 270° West 372 428 36,000  Level Chicago Center
Mon 09:22:15 PM 41.4158 -85.6525 254° West 369 425 36,000  Level Chicago Center
Mon 09:23:17 PM 41.3886 -85.7853 255° West 369 425 36,000  Level Chicago Center
Mon 09:24:19 PM 41.3511 -85.9431 252° West 372 428 36,000  Level Chicago Center
Mon 09:25:21 PM 41.3128 -86.0714 248° West 373 429 36,000  Level Chicago Center
Mon 09:26:23 PM 41.2744 -86.1994 248° West 372 428 36,000  Level Chicago Center
Mon 09:27:25 PM 41.2356 -86.3286 248° West 375 432 36,000  Level Chicago Center
Mon 09:28:27 PM 41.1978 -86.4564 249° West 374 430 36,000  Level Chicago Center
Mon 09:29:28 PM 41.1622 -86.5839 250° West 371 427 36,000  Level Chicago Center
Mon 09:30:30 PM 41.1697 -86.7375 274° West 370 426 36,000  Level Chicago Center
Mon 09:31:32 PM 41.1797 -86.8753 276° West 375 432 36,000  Level Chicago Center
Mon 09:32:34 PM 41.1881 -87.0122 275° West 374 430 36,000  Level Chicago Center
Mon 09:33:36 PM 41.1967 -87.1497 275° West 376 433 36,000  Level Chicago Center
Mon 09:34:37 PM 41.2081 -87.3150 275° West 375 432 36,000  Level Chicago Center
Mon 09:35:39 PM 41.2175 -87.4528 275° West 376 433 36,000  Level Chicago Center
Mon 09:36:41 PM 41.2256 -87.5908 274° West 376 433 36,000  Level Chicago Center
Mon 09:37:43 PM 41.2347 -87.7289 275° West 376 433 36,000  Level Chicago Center
Mon 09:38:45 PM 41.2428 -87.8675 274° West 375 432 36,000  Level Chicago Center
Mon 09:39:46 PM 41.2511 -88.0075 275° West 375 432 36,000  Level Chicago Center
Mon 09:40:48 PM 41.2578 -88.1481 274° West 376 433 36,000  Level Chicago Center
Mon 09:41:50 PM 41.2664 -88.2869 275° West 374 430 36,000  Level Chicago Center
Mon 09:42:51 PM 41.2764 -88.4506 275° West 371 427 36,000  Level Chicago Center
Mon 09:43:53 PM 41.2822 -88.5881 273° West 373 429 36,000  Level Chicago Center
Mon 09:44:55 PM 41.2897 -88.7233 274° West 370 426 36,000  Level Chicago Center
Mon 09:45:56 PM 41.2964 -88.8597 274° West 370 426 36,000  Level Chicago Center
Mon 09:46:58 PM 41.3031 -88.9936 274° West 367 422 36,000  Level Chicago Center
Mon 09:48:00 PM 41.3100 -89.1289 274° West 367 422 36,000  Level Chicago Center
Mon 09:49:01 PM 41.3189 -89.2669 275° West 377 434 36,000  Level Chicago Center
Mon 09:50:03 PM 41.3244 -89.4289 273° West 370 426 36,000  Level Chicago Center
Mon 09:51:05 PM 41.3311 -89.5628 274° West 366 421 36,000  Level Chicago Center
Mon 09:52:06 PM 41.3369 -89.6975 273° West 367 422 36,000  Level Chicago Center
Mon 09:53:08 PM 41.3419 -89.8319 273° West 368 423 36,000  Level Chicago Center
Mon 09:54:10 PM 41.3483 -89.9644 274° West 363 418 36,000  Level Chicago Center
Mon 09:55:11 PM 41.3533 -90.0983 273° West 364 419 36,000  Level Chicago Center
Mon 09:56:13 PM 41.3578 -90.2325 273° West 364 419 36,000  Level Chicago Center
Mon 09:57:14 PM 41.3639 -90.3933 273° West 365 420 36,000  Level Chicago Center
Mon 09:58:16 PM 41.3694 -90.5272 273° West 364 419 36,000  Level Chicago Center
Mon 09:59:17 PM 41.3728 -90.6614 272° West 364 419 36,000  Level Chicago Center
Mon 10:00:19 PM 41.3786 -90.7928 273° West 359 413 36,000 -293 Level Chicago Center
Mon 10:01:20 PM 41.3822 -90.9250 272° West 358 412 35,400 -829 Descending Chicago Center
Mon 10:02:22 PM 41.3858 -91.0558 272° West 355 409 34,300 -1,024 Descending Chicago Center
Mon 10:03:23 PM 41.3903 -91.1856 273° West 352 405 33,300 -1,024 Descending Chicago Center
Mon 10:04:25 PM 41.3950 -91.3331 272° West 359 413 32,200 -1,024 Descending Chicago Center
Mon 10:05:26 PM 41.3978 -91.4681 272° West 366 421 31,200 -1,415 Descending Chicago Center
Mon 10:06:28 PM 41.4019 -91.6033 272° West 368 423 29,300 -2,000 Descending Chicago Center
Mon 10:07:29 PM 41.4044 -91.7414 271° West 372 428 27,100 -2,066 Descending Chicago Center
Mon 10:08:30 PM 41.4086 -91.8806 272° West 377 434 25,100 -1,756 Descending Chicago Center
Mon 10:09:32 PM 41.4125 -92.0481 272° West 379 436 23,500 -1,756 Descending Chicago Center
Mon 10:10:33 PM 41.4153 -92.1856 272° West 374 430 21,500 -2,115 Descending Chicago Center
Mon 10:11:34 PM 41.4186 -92.3161 272° West 361 415 19,200 -2,098 Descending Chicago Center
Mon 10:12:36 PM 41.4197 -92.4336 271° West 352 405 17,200 -2,098 Descending Chicago Center
Mon 10:13:37 PM 41.4225 -92.5528 272° West 335 386 14,900 -2,459 Descending Chicago Center
Mon 10:14:38 PM 41.4253 -92.6964 272° West 327 376 12,200 -2,500 Descending Chicago Center
Mon 10:15:01 PM 41.4278 -92.7433 274° West 325 374 11,400 -1,429 Descending Minneapolis Center
Mon 10:16:02 PM 41.4283 -92.8503 270° West 292 336 10,200 -1,486 Descending Minneapolis Center
Mon 10:16:50 PM 41.4350 -92.9211 277° West 260 299 8,700 -1,944 Descending Minneapolis Center
Mon 10:17:50 PM 41.4364 -93.0153 271° West 255 293 6,700 -1,920 Descending Minneapolis Center
Mon 10:18:05 PM 41.4314 -93.0464 258° West 255 293 6,300 -1,475 Descending Minneapolis Center
Mon 10:18:51 PM 41.4375 -93.1069 278° West 250 288 5,200 -1,377 Descending Minneapolis Center
Mon 10:19:06 PM 41.4325 -93.1356 257° West 243 280 4,900 -984 Descending Minneapolis Center
Mon 10:19:52 PM 41.4383 -93.1958 277° West 242 278 4,200 -787 Descending Minneapolis Center
Mon 10:20:07 PM 41.4336 -93.2261 258° West 244 281 4,100 -158 Descending Minneapolis Center
Mon 10:21:08 PM 41.4344 -93.3253 271° West 250 288 4,000 -57 Descending Minneapolis Center
Mon 10:21:53 PM 41.4403 -93.3817 278° West 252 290 4,000  Level Minneapolis Center
Mon 10:22:09 PM 41.4361 -93.4197 262° West 255 293 4,000  Level Minneapolis Center
Mon 10:22:54 PM 41.4414 -93.4758 277° West 254 292 4,000  Level Minneapolis Center
Mon 10:23:10 PM 41.4358 -93.5136 259° West 254 292 4,000  Level Minneapolis Center
Mon 10:24:00 PM 41.4428 -93.5842 278° West 255 293 4,000 -270 Level Minneapolis Center
Mon 10:25:01 PM 41.4458 -93.6783 273° West 249 287 3,500 -738 Descending Minneapolis Center
Mon 10:26:02 PM 41.4775 -93.7253 312° West 177 204 2,500 -902 Descending Minneapolis Center
Mon 10:27:14 PM 41.5083 -93.7050 26° Northeast 141 162 1,500 -722 Descending Minneapolis Center
Mon 10:28:15 PM 41.5314 -93.6625 54° Northeast 138 159 900 -590 Descending Minneapolis Center

Login

Don't have an account? Register now (free) for customized features, flight alerts, and more!